createdAt,value
2018-12-02T00:00:50.523Z,39.88
2018-12-02T00:03:17.393Z,38.85
2018-12-02T00:05:44.367Z,38.08
2018-12-02T00:08:11.332Z,34.73
2018-12-02T00:10:38.413Z,30.68
2018-12-02T00:13:05.473Z,39.58
2018-12-02T00:15:32.744Z,32.98
2018-12-02T00:17:59.607Z,34.95
2018-12-02T00:20:26.561Z,35.10
2018-12-02T00:22:53.439Z,37.05
2018-12-02T00:25:20.406Z,35.08
2018-12-02T00:27:47.473Z,29.30
2018-12-02T00:30:15.251Z,35.15
2018-12-02T00:32:42.330Z,41.33
2018-12-02T00:35:09.303Z,43.23
2018-12-02T00:37:36.686Z,35.58
2018-12-02T00:40:03.645Z,41.45
2018-12-02T00:42:31.253Z,30.43
2018-12-02T00:44:58.502Z,35.55
2018-12-02T00:47:26.123Z,29.10
2018-12-02T00:49:53.345Z,34.08
2018-12-02T00:52:20.272Z,31.73
2018-12-02T00:54:47.368Z,31.55
2018-12-02T00:57:14.610Z,36.90
2018-12-02T00:59:41.719Z,34.67
2018-12-02T01:02:08.673Z,37.30
2018-12-02T01:04:35.468Z,39.23
2018-12-02T01:07:04.001Z,41.33
2018-12-02T01:09:31.940Z,38.75
2018-12-02T01:11:59.661Z,35.43
2018-12-02T01:14:27.105Z,48.98
2018-12-02T01:16:56.146Z,42.33
2018-12-02T01:19:23.696Z,45.67
2018-12-02T01:21:50.870Z,40.58
2018-12-02T01:24:18.470Z,37.80
2018-12-02T01:26:49.104Z,42.75
2018-12-02T01:29:17.321Z,35.28
2018-12-02T01:31:45.733Z,35.10
2018-12-02T01:34:13.262Z,37.67
2018-12-02T01:36:41.664Z,37.93
2018-12-02T01:41:41.945Z,37.78
2018-12-02T01:44:09.740Z,47.88
2018-12-02T01:49:09.772Z,34.33
2018-12-02T01:51:37.202Z,38.85
2018-12-02T01:54:04.286Z,41.42
2018-12-02T01:56:33.361Z,42.35
2018-12-02T01:59:01.360Z,38.80
2018-12-02T02:01:28.905Z,46.00
2018-12-02T02:03:56.362Z,42.85
2018-12-02T02:06:24.122Z,55.35
2018-12-02T02:08:55.181Z,39.18
2018-12-02T02:11:22.751Z,43.38
2018-12-02T02:13:51.753Z,48.80
2018-12-02T02:16:19.362Z,44.18
2018-12-02T02:18:47.125Z,52.58
2018-12-02T02:21:14.779Z,42.25
2018-12-02T02:23:42.071Z,44.75
2018-12-02T02:26:10.905Z,43.58
2018-12-02T02:28:38.791Z,53.90
2018-12-02T02:31:07.679Z,51.48
2018-12-02T02:33:34.659Z,44.58
2018-12-02T02:36:01.627Z,43.10
2018-12-02T02:38:28.711Z,47.43
2018-12-02T02:40:55.746Z,48.28
2018-12-02T02:43:22.886Z,43.90
2018-12-02T02:45:49.789Z,38.95
2018-12-02T02:48:16.765Z,35.20
2018-12-02T02:50:43.529Z,42.65
2018-12-02T02:53:11.613Z,32.30
2018-12-02T02:55:38.363Z,39.75
2018-12-02T02:58:05.245Z,32.40
2018-12-02T03:00:32.107Z,36.58
2018-12-02T03:02:58.975Z,40.65
2018-12-02T03:05:25.843Z,34.90
2018-12-02T03:07:52.805Z,35.58
2018-12-02T03:10:19.870Z,36.75
2018-12-02T03:12:46.844Z,33.08
2018-12-02T03:15:13.802Z,35.68
2018-12-02T03:17:40.766Z,39.53
2018-12-02T03:20:07.626Z,29.00
2018-12-02T03:22:34.611Z,29.82
2018-12-02T03:25:01.461Z,31.33
2018-12-02T03:27:28.340Z,30.23
2018-12-02T03:29:55.205Z,36.48
2018-12-02T03:32:22.379Z,42.83
2018-12-02T03:34:49.428Z,38.15
2018-12-02T03:37:16.404Z,32.20
2018-12-02T03:39:43.379Z,36.15
2018-12-02T03:42:10.338Z,31.70
2018-12-02T03:44:38.224Z,32.73
2018-12-02T03:47:05.082Z,31.87
2018-12-02T03:49:31.964Z,32.03
2018-12-02T03:51:58.923Z,24.25
2018-12-02T03:54:25.787Z,31.85
2018-12-02T03:56:53.261Z,35.10
2018-12-02T03:59:20.742Z,33.78
2018-12-02T04:01:47.719Z,31.93
2018-12-02T04:04:15.705Z,27.42
2018-12-02T04:06:42.568Z,27.87
2018-12-02T04:09:09.422Z,28.95
2018-12-02T04:11:36.399Z,33.98
2018-12-02T04:14:03.260Z,34.15
2018-12-02T04:16:30.030Z,29.98
2018-12-02T04:18:56.892Z,34.18
2018-12-02T04:21:23.849Z,31.35
2018-12-02T04:23:51.347Z,31.30
2018-12-02T04:26:18.223Z,33.90
2018-12-02T04:28:45.176Z,30.77
2018-12-02T04:31:11.928Z,31.15
2018-12-02T04:33:38.901Z,26.10
2018-12-02T04:36:06.057Z,41.13
2018-12-02T04:38:33.331Z,31.23
2018-12-02T04:41:00.109Z,38.85
2018-12-02T04:43:27.310Z,33.73
2018-12-02T04:45:54.701Z,31.27
2018-12-02T04:48:21.623Z,31.52
2018-12-02T04:50:50.468Z,28.23
2018-12-02T04:53:18.019Z,30.85
2018-12-02T04:55:45.524Z,29.67
2018-12-02T04:58:13.110Z,31.73
2018-12-02T05:00:40.205Z,31.05
2018-12-02T05:03:07.749Z,35.98
2018-12-02T05:05:35.107Z,31.17
2018-12-02T05:08:03.105Z,27.65
2018-12-02T05:10:31.173Z,32.55
2018-12-02T05:12:58.951Z,35.83
2018-12-02T05:15:27.043Z,34.78
2018-12-02T05:17:54.689Z,30.00
2018-12-02T05:20:22.726Z,36.15
2018-12-02T05:22:54.714Z,41.58
2018-12-02T05:25:22.748Z,34.23
2018-12-02T05:27:50.603Z,35.10
2018-12-02T05:30:18.973Z,37.55
2018-12-02T05:32:49.737Z,32.20
2018-12-02T05:35:17.345Z,36.17
2018-12-02T05:37:45.445Z,38.17
2018-12-02T05:40:12.625Z,40.23
2018-12-02T05:42:41.832Z,37.75
2018-12-02T05:45:09.605Z,41.70
2018-12-02T05:47:36.951Z,39.05
2018-12-02T05:50:07.188Z,37.60
2018-12-02T05:52:34.944Z,35.63
2018-12-02T05:55:03.403Z,35.48
2018-12-02T05:57:31.013Z,33.33
2018-12-02T05:59:59.089Z,35.55
2018-12-02T06:02:26.366Z,32.67
2018-12-02T06:04:55.889Z,32.05
2018-12-02T06:07:23.483Z,30.37
2018-12-02T06:09:54.688Z,31.85
2018-12-02T06:12:22.464Z,35.75
2018-12-02T06:17:23.579Z,32.23
2018-12-02T06:19:51.589Z,37.05
2018-12-02T06:22:21.806Z,35.90
2018-12-02T06:24:50.187Z,34.58
2018-12-02T06:27:17.289Z,38.23
2018-12-02T06:29:44.749Z,42.13
2018-12-02T06:32:13.889Z,43.25
2018-12-02T06:37:14.469Z,35.85
2018-12-02T06:39:42.652Z,40.63
2018-12-02T06:42:11.805Z,35.83
2018-12-02T06:44:40.873Z,37.53
2018-12-02T06:47:07.929Z,33.30
2018-12-02T06:49:38.932Z,30.08
2018-12-02T06:54:50.581Z,32.48
2018-12-02T06:57:17.828Z,34.03
2018-12-02T06:59:46.541Z,31.12
2018-12-02T07:02:15.435Z,32.15
2018-12-02T07:04:47.518Z,32.93
2018-12-02T07:09:47.907Z,32.83
2018-12-02T07:12:15.151Z,33.58
2018-12-02T07:14:42.850Z,36.58
2018-12-02T07:17:09.779Z,29.87
2018-12-02T07:19:38.535Z,34.85
2018-12-02T07:22:07.260Z,35.38
2018-12-02T07:24:37.958Z,27.98
2018-12-02T07:30:09.155Z,31.77
2018-12-02T07:32:38.564Z,32.00
2018-12-02T07:37:40.684Z,31.12
2018-12-02T07:40:08.273Z,31.93
2018-12-02T07:42:35.374Z,34.88
2018-12-02T07:45:07.727Z,29.15
2018-12-02T07:47:35.619Z,35.88
2018-12-02T07:55:21.877Z,36.95
2018-12-02T07:57:49.339Z,31.90
2018-12-02T08:00:17.503Z,30.82
2018-12-02T08:02:44.580Z,31.73
2018-12-02T08:07:47.660Z,34.95
2018-12-02T08:10:17.857Z,25.20
2018-12-02T08:12:47.285Z,32.10
2018-12-02T08:17:52.392Z,29.77
2018-12-02T08:20:23.027Z,24.55
2018-12-02T08:22:52.122Z,26.33
2018-12-02T08:25:19.940Z,29.65
2018-12-02T08:27:47.400Z,30.95
2018-12-02T08:30:15.733Z,32.73
2018-12-02T08:32:50.058Z,40.25
2018-12-02T08:35:19.133Z,37.20
2018-12-02T08:37:47.101Z,27.15
2018-12-02T08:42:47.599Z,35.78
2018-12-02T08:45:15.422Z,33.30
2018-12-02T08:47:43.382Z,36.33
2018-12-02T08:50:10.527Z,31.95
2018-12-02T08:52:38.142Z,35.33
2018-12-02T08:55:05.759Z,39.70
2018-12-02T08:57:34.005Z,33.08
2018-12-02T09:00:01.901Z,27.95
2018-12-02T09:02:29.098Z,26.23
2018-12-02T09:04:57.063Z,29.60
2018-12-02T09:07:24.776Z,31.60
2018-12-02T09:09:59.322Z,29.48
2018-12-02T09:12:20.606Z,31.85
2018-12-02T09:14:48.187Z,32.20
2018-12-02T09:17:15.283Z,34.90
2018-12-02T09:19:42.449Z,34.43
2018-12-02T09:22:09.304Z,37.00
2018-12-02T09:24:36.363Z,32.75
2018-12-02T09:27:03.741Z,33.55
2018-12-02T09:29:31.790Z,35.00
2018-12-02T09:31:59.945Z,32.23
2018-12-02T09:34:27.223Z,38.20
2018-12-02T09:36:57.965Z,36.75
2018-12-02T09:39:23.334Z,34.00
2018-12-02T09:41:50.945Z,31.50
2018-12-02T09:44:18.248Z,28.35
2018-12-02T09:46:45.411Z,34.03
2018-12-02T09:49:12.924Z,32.78
2018-12-02T09:51:39.761Z,34.30
2018-12-02T09:54:07.860Z,33.63
2018-12-02T09:56:35.447Z,32.75
2018-12-02T09:59:02.664Z,36.73
2018-12-02T10:01:31.103Z,28.67
2018-12-02T10:03:58.487Z,30.57
2018-12-02T10:06:26.108Z,32.73
2018-12-02T10:08:53.249Z,31.27
2018-12-02T10:11:20.608Z,27.32
2018-12-02T10:13:47.597Z,33.20
2018-12-02T10:16:15.962Z,31.50
2018-12-02T10:18:43.050Z,30.32
2018-12-02T10:21:10.351Z,33.23
2018-12-02T10:23:38.229Z,33.50
2018-12-02T10:26:05.730Z,33.65
2018-12-02T10:28:33.271Z,28.47
2018-12-02T10:31:01.273Z,37.17
2018-12-02T10:33:28.631Z,29.65
2018-12-02T10:35:55.812Z,28.45
2018-12-02T10:38:23.112Z,31.05
2018-12-02T10:40:50.473Z,30.00
2018-12-02T10:43:18.452Z,28.73
2018-12-02T10:45:46.132Z,32.13
2018-12-02T10:48:13.566Z,32.50
2018-12-02T10:50:40.969Z,32.45
2018-12-02T10:53:08.089Z,35.45
2018-12-02T10:55:35.869Z,31.23
2018-12-02T10:58:03.171Z,31.75
2018-12-02T11:00:30.489Z,33.75
2018-12-02T11:02:58.259Z,33.45
2018-12-02T11:05:26.729Z,33.08
2018-12-02T11:07:54.770Z,44.30
2018-12-02T11:10:22.142Z,32.10
2018-12-02T11:12:51.141Z,36.95
2018-12-02T11:15:19.985Z,25.65
2018-12-02T11:17:47.252Z,32.45
2018-12-02T11:20:14.638Z,30.23
2018-12-02T11:22:41.784Z,28.32
2018-12-02T11:25:09.063Z,30.35
2018-12-02T11:27:36.782Z,28.45
2018-12-02T11:30:04.225Z,25.75
2018-12-02T11:32:31.532Z,37.48
2018-12-02T11:34:59.075Z,31.65
2018-12-02T11:37:26.974Z,30.62
2018-12-02T11:39:53.834Z,32.95
2018-12-02T11:42:20.598Z,31.37
2018-12-02T11:44:48.493Z,31.15
2018-12-02T11:47:15.554Z,29.75
2018-12-02T11:49:42.730Z,33.20
2018-12-02T11:52:10.002Z,32.83
2018-12-02T11:54:36.970Z,31.05
2018-12-02T11:57:04.127Z,26.65
2018-12-02T11:59:31.479Z,33.40
2018-12-02T12:01:58.655Z,29.95
2018-12-02T12:04:25.662Z,34.40
2018-12-02T12:06:52.755Z,31.15
2018-12-02T12:09:19.995Z,31.17
2018-12-02T12:11:47.254Z,33.00
2018-12-02T12:14:14.122Z,29.23
2018-12-02T12:16:41.223Z,31.85
2018-12-02T12:19:08.308Z,32.83
2018-12-02T12:21:35.546Z,33.95
2018-12-02T12:24:02.729Z,27.58
2018-12-02T12:26:31.413Z,42.33
2018-12-02T12:28:59.222Z,35.35
2018-12-02T12:31:26.594Z,29.15
2018-12-02T12:33:54.059Z,31.57
2018-12-02T12:36:21.742Z,31.60
2018-12-02T12:38:48.948Z,31.50
2018-12-02T12:41:16.053Z,28.12
2018-12-02T12:43:43.412Z,27.13
2018-12-02T12:46:10.779Z,34.08
2018-12-02T12:48:37.888Z,29.15
2018-12-02T12:51:05.274Z,31.57
2018-12-02T12:53:32.870Z,28.05
2018-12-02T12:56:00.442Z,28.20
2018-12-02T12:58:28.439Z,25.97
2018-12-02T13:00:55.815Z,28.32
2018-12-02T13:03:22.870Z,27.27
2018-12-02T13:05:51.266Z,31.25
2018-12-02T13:08:18.761Z,22.48
2018-12-02T13:10:46.937Z,27.48
2018-12-02T13:13:14.034Z,26.75
2018-12-02T13:15:41.122Z,30.02
2018-12-02T13:18:08.501Z,28.70
2018-12-02T13:20:35.799Z,31.05
2018-12-02T13:23:02.674Z,30.00
2018-12-02T13:25:29.574Z,28.87
2018-12-02T13:27:56.463Z,32.48
2018-12-02T13:30:23.405Z,24.85
2018-12-02T13:32:50.787Z,28.47
2018-12-02T13:35:17.705Z,33.53
2018-12-02T13:37:45.133Z,23.90
2018-12-02T13:40:12.013Z,26.02
2018-12-02T13:42:39.071Z,30.30
2018-12-02T13:45:06.412Z,28.85
2018-12-02T13:47:33.613Z,27.15
2018-12-02T13:50:00.471Z,30.00
2018-12-02T13:52:27.552Z,28.23
2018-12-02T13:54:54.692Z,25.62
2018-12-02T13:57:21.792Z,24.75
2018-12-02T13:59:48.932Z,27.67
2018-12-02T14:02:16.573Z,23.70
2018-12-02T14:04:44.212Z,30.02
2018-12-02T14:07:11.171Z,34.03
2018-12-02T14:09:38.055Z,35.68
2018-12-02T14:12:04.992Z,33.78
2018-12-02T14:14:32.091Z,24.70
2018-12-02T14:16:59.160Z,26.55
2018-12-02T14:19:26.111Z,28.55
2018-12-02T14:21:53.294Z,21.87
2018-12-02T14:24:20.275Z,28.25
2018-12-02T14:26:47.432Z,25.12
2018-12-02T14:29:14.505Z,29.12
2018-12-02T14:31:41.574Z,27.58
2018-12-02T14:34:08.710Z,26.02
2018-12-02T14:36:35.907Z,31.42
2018-12-02T14:39:02.775Z,26.00
2018-12-02T14:41:29.836Z,27.00
2018-12-02T14:43:56.935Z,27.70
2018-12-02T14:46:23.800Z,23.32
2018-12-02T14:48:50.776Z,27.13
2018-12-02T14:51:17.776Z,28.52
2018-12-02T14:53:44.637Z,31.95
2018-12-02T14:56:11.616Z,40.48
2018-12-02T14:58:38.524Z,35.58
2018-12-02T15:01:05.283Z,36.25
2018-12-02T15:03:32.944Z,34.65
2018-12-02T15:05:59.984Z,35.40
2018-12-02T15:08:26.814Z,36.42
2018-12-02T15:10:53.919Z,34.33
2018-12-02T15:13:21.039Z,31.25
2018-12-02T15:15:47.998Z,38.25
2018-12-02T15:18:15.280Z,39.18
2018-12-02T15:20:42.259Z,45.45
2018-12-02T15:23:09.200Z,41.70
2018-12-02T15:25:36.099Z,44.27
2018-12-02T15:28:03.159Z,40.45
2018-12-02T15:30:30.478Z,35.68
2018-12-02T15:32:58.048Z,38.92
2018-12-02T15:35:25.069Z,38.40
2018-12-02T15:37:52.002Z,39.58
2018-12-02T15:40:20.050Z,48.70
2018-12-02T15:42:47.402Z,45.88
2018-12-02T15:45:14.823Z,33.33
2018-12-02T15:47:42.303Z,40.35
2018-12-02T15:50:11.583Z,39.90
2018-12-02T15:52:38.663Z,35.55
2018-12-02T15:55:05.756Z,37.98
2018-12-02T15:57:32.982Z,39.25
2018-12-02T15:59:59.964Z,36.63
2018-12-02T16:02:27.363Z,38.58
2018-12-02T16:04:58.382Z,35.38
2018-12-02T16:07:25.863Z,47.03
2018-12-02T16:09:53.342Z,36.10
2018-12-02T16:12:20.663Z,43.28
2018-12-02T16:14:51.773Z,37.40
2018-12-02T16:20:15.382Z,42.48
2018-12-02T16:22:43.088Z,40.17
2018-12-02T16:25:11.364Z,40.55
2018-12-02T16:27:38.524Z,42.27
2018-12-02T16:30:05.599Z,44.38
2018-12-02T16:32:32.901Z,47.80
2018-12-02T16:35:00.557Z,48.00
2018-12-02T16:37:28.062Z,39.63
2018-12-02T16:39:55.636Z,45.48
2018-12-02T16:42:22.988Z,45.85
2018-12-02T16:44:59.037Z,39.10
2018-12-02T16:47:26.036Z,41.37
2018-12-02T16:49:53.815Z,40.43
2018-12-02T16:52:21.493Z,36.55
2018-12-02T16:54:48.625Z,38.78
2018-12-02T16:57:16.702Z,36.42
2018-12-02T16:59:45.261Z,39.35
2018-12-02T17:02:12.384Z,46.23
2018-12-02T17:04:39.711Z,33.75
2018-12-02T17:07:08.328Z,28.95
2018-12-02T17:09:35.504Z,30.17
2018-12-02T17:12:03.237Z,33.55
2018-12-02T17:14:30.437Z,31.30
2018-12-02T17:16:57.837Z,29.02
2018-12-02T17:19:26.202Z,39.65
2018-12-02T17:21:53.918Z,30.80
2018-12-02T17:24:21.679Z,34.05
2018-12-02T17:26:48.892Z,41.13
2018-12-02T17:29:15.945Z,31.68
2018-12-02T17:31:43.103Z,32.20
2018-12-02T17:34:10.581Z,37.95
2018-12-02T17:36:38.863Z,44.77
2018-12-02T17:39:06.826Z,38.75
2018-12-02T17:41:33.710Z,42.58
2018-12-02T17:44:01.014Z,47.80
2018-12-02T17:46:28.021Z,59.93
2018-12-02T17:48:55.143Z,55.15
2018-12-02T17:51:22.209Z,52.90
2018-12-02T17:53:50.348Z,53.78
2018-12-02T17:56:17.463Z,45.08
2018-12-02T17:58:45.245Z,58.38
2018-12-02T18:01:12.551Z,41.65
2018-12-02T18:03:40.728Z,47.83
2018-12-02T18:06:08.649Z,48.25
2018-12-02T18:08:36.289Z,48.02
2018-12-02T18:11:03.615Z,43.73
2018-12-02T18:13:30.725Z,50.55
2018-12-02T18:15:58.026Z,46.50
2018-12-02T18:18:25.485Z,56.73
2018-12-02T18:20:52.860Z,50.28
2018-12-02T18:23:20.264Z,45.98
2018-12-02T18:25:48.370Z,45.08
2018-12-02T18:28:19.801Z,47.50
2018-12-02T18:30:47.181Z,43.38
2018-12-02T18:33:14.753Z,48.05
2018-12-02T18:35:41.821Z,42.73
2018-12-02T18:38:09.425Z,46.77
2018-12-02T18:40:36.629Z,38.10
2018-12-02T18:43:04.565Z,40.00
2018-12-02T18:45:31.978Z,45.52
2018-12-02T18:47:59.986Z,39.70
2018-12-02T18:50:28.288Z,51.05
2018-12-02T18:52:55.625Z,46.50
2018-12-02T18:55:22.779Z,47.33
2018-12-02T18:57:50.297Z,40.95
2018-12-02T19:00:17.868Z,42.15
2018-12-02T19:02:47.320Z,38.23
2018-12-02T19:05:14.541Z,49.55
2018-12-02T19:07:41.605Z,41.30
2018-12-02T19:10:09.682Z,40.30
2018-12-02T19:12:36.857Z,49.35
2018-12-02T19:15:05.002Z,43.70
2018-12-02T19:17:32.757Z,41.92
2018-12-02T19:20:01.147Z,45.52
2018-12-02T19:22:28.365Z,41.58
2018-12-02T19:24:55.887Z,47.83
2018-12-02T19:27:23.520Z,45.67
2018-12-02T19:29:50.447Z,43.78
2018-12-02T19:32:17.620Z,38.70
2018-12-02T19:34:44.785Z,41.10
2018-12-02T19:37:11.801Z,44.08
2018-12-02T19:39:39.533Z,45.95
2018-12-02T19:42:06.394Z,48.75
2018-12-02T19:44:33.818Z,36.77
2018-12-02T19:47:00.977Z,49.90
2018-12-02T19:49:28.135Z,38.05
2018-12-02T19:51:56.356Z,40.15
2018-12-02T19:54:23.375Z,37.73
2018-12-02T19:56:50.335Z,40.20
2018-12-02T19:59:18.130Z,48.17
2018-12-02T20:01:44.983Z,42.70
2018-12-02T20:04:12.470Z,40.33
2018-12-02T20:06:39.242Z,51.25
2018-12-02T20:09:06.910Z,39.88
2018-12-02T20:11:34.135Z,41.58
2018-12-02T20:14:01.481Z,47.73
2018-12-02T20:16:28.950Z,51.53
2018-12-02T20:18:56.542Z,60.88
2018-12-02T20:21:23.681Z,50.35
2018-12-02T20:23:50.985Z,54.85
2018-12-02T20:26:18.704Z,59.98
2018-12-02T20:28:45.621Z,58.35
2018-12-02T20:31:13.720Z,50.78
2018-12-02T20:33:44.279Z,45.17
2018-12-02T20:36:11.962Z,37.88
2018-12-02T20:38:39.421Z,38.50
2018-12-02T20:41:06.719Z,37.63
2018-12-02T20:43:34.419Z,40.20
2018-12-02T20:46:02.020Z,31.25
2018-12-02T20:48:29.183Z,37.80
2018-12-02T20:50:57.130Z,35.45
2018-12-02T20:53:24.830Z,42.10
2018-12-02T20:55:52.131Z,43.13
2018-12-02T20:58:19.571Z,40.58
2018-12-02T21:00:47.518Z,40.00
2018-12-02T21:03:15.067Z,34.38
2018-12-02T21:05:42.755Z,39.60
2018-12-02T21:08:09.883Z,41.50
2018-12-02T21:10:36.977Z,39.78
2018-12-02T21:13:04.324Z,32.48
2018-12-02T21:15:31.708Z,41.05
2018-12-02T21:17:58.788Z,38.08
2018-12-02T21:20:25.653Z,32.28
2018-12-02T21:22:52.829Z,36.68
2018-12-02T21:25:20.410Z,41.00
2018-12-02T21:27:47.452Z,36.48
2018-12-02T21:30:17.165Z,38.38
2018-12-02T21:32:44.805Z,41.48
2018-12-02T21:35:12.382Z,38.17
2018-12-02T21:37:39.482Z,36.40
2018-12-02T21:40:06.502Z,36.85
2018-12-02T21:42:33.782Z,64.80
2018-12-02T21:45:00.862Z,72.65
2018-12-02T21:47:28.163Z,65.83
2018-12-02T21:49:55.372Z,66.87
2018-12-02T21:52:22.463Z,78.55
2018-12-02T21:54:49.546Z,80.50
2018-12-02T21:57:16.763Z,71.42
2018-12-02T21:59:43.977Z,80.07
2018-12-02T22:02:11.857Z,83.70
2018-12-02T22:04:39.037Z,72.60
2018-12-02T22:07:06.237Z,63.83
2018-12-02T22:09:33.657Z,70.00
2018-12-02T22:12:00.738Z,62.62
2018-12-02T22:14:28.036Z,63.73
2018-12-02T22:16:55.496Z,55.85
2018-12-02T22:19:22.857Z,52.83
2018-12-02T22:21:50.156Z,56.92
2018-12-02T22:24:17.316Z,51.23
2018-12-02T22:26:44.944Z,45.30
2018-12-02T22:29:12.309Z,47.17
2018-12-02T22:31:39.756Z,43.00
2018-12-02T22:34:06.937Z,47.15
2018-12-02T22:36:34.141Z,41.68
2018-12-02T22:39:01.321Z,43.87
2018-12-02T22:41:29.284Z,39.20
2018-12-02T22:43:56.287Z,36.00
2018-12-02T22:46:23.728Z,40.33
2018-12-02T22:48:52.520Z,36.95
2018-12-02T22:51:19.933Z,38.67
2018-12-02T22:53:47.181Z,41.30
2018-12-02T22:56:14.399Z,36.60
2018-12-02T22:58:41.597Z,39.10
2018-12-02T23:01:09.209Z,41.42
2018-12-02T23:03:37.103Z,35.95
2018-12-02T23:06:04.769Z,44.08
2018-12-02T23:08:31.968Z,40.78
2018-12-02T23:10:59.179Z,37.10
2018-12-02T23:13:26.283Z,33.98
2018-12-02T23:15:53.643Z,48.58
2018-12-02T23:18:20.768Z,38.40
2018-12-02T23:20:48.213Z,48.65
2018-12-02T23:23:16.223Z,50.95
2018-12-02T23:25:43.202Z,48.65
2018-12-02T23:28:10.767Z,49.27
2018-12-02T23:30:38.327Z,49.98
2018-12-02T23:33:05.498Z,44.33
2018-12-02T23:35:33.102Z,46.88
2018-12-02T23:38:00.959Z,45.23
2018-12-02T23:40:28.223Z,43.78
2018-12-02T23:42:55.558Z,53.95
2018-12-02T23:45:23.093Z,39.80
2018-12-02T23:47:50.267Z,39.00
2018-12-02T23:50:17.448Z,33.65
2018-12-02T23:52:44.402Z,39.03
2018-12-02T23:55:11.780Z,35.60
2018-12-02T23:57:39.084Z,38.17
